createdAt,value
2018-11-05T00:01:23.308Z,13.95
2018-11-05T00:04:03.699Z,13.93
2018-11-05T00:06:45.493Z,16.02
2018-11-05T00:09:24.557Z,14.18
2018-11-05T00:12:05.274Z,15.18
2018-11-05T00:14:43.614Z,14.73
2018-11-05T00:17:23.933Z,14.60
2018-11-05T00:20:04.594Z,15.63
2018-11-05T00:22:42.395Z,16.00
2018-11-05T00:25:22.528Z,15.08
2018-11-05T00:28:01.505Z,15.38
2018-11-05T00:30:41.290Z,15.78
2018-11-05T00:33:20.531Z,15.48
2018-11-05T00:36:00.148Z,16.77
2018-11-05T00:38:40.570Z,16.42
2018-11-05T00:41:25.655Z,13.98
2018-11-05T00:44:05.198Z,16.90
2018-11-05T00:46:45.514Z,15.80
2018-11-05T00:49:24.830Z,17.07
2018-11-05T00:52:02.204Z,17.80
2018-11-05T00:54:41.741Z,15.75
2018-11-05T00:57:23.627Z,17.57
2018-11-05T01:00:03.397Z,17.82
2018-11-05T01:02:43.310Z,17.92
2018-11-05T01:05:24.127Z,16.90
2018-11-05T01:08:04.396Z,17.85
2018-11-05T01:10:42.596Z,16.97
2018-11-05T01:13:22.852Z,18.15
2018-11-05T01:16:01.487Z,17.70
2018-11-05T01:18:37.958Z,19.50
2018-11-05T01:21:16.643Z,19.20
2018-11-05T01:23:51.196Z,18.52
2018-11-05T01:26:33.561Z,17.45
2018-11-05T01:29:12.853Z,17.23
2018-11-05T01:31:53.268Z,16.35
2018-11-05T01:34:33.662Z,17.57
2018-11-05T01:37:14.568Z,18.12
2018-11-05T01:39:56.070Z,17.90
2018-11-05T01:42:36.361Z,17.98
2018-11-05T01:45:18.626Z,19.02
2018-11-05T01:47:59.165Z,18.87
2018-11-05T01:50:37.784Z,19.50
2018-11-05T01:53:16.642Z,16.62
2018-11-05T01:55:56.268Z,19.85
2018-11-05T01:58:36.308Z,19.62
2018-11-05T02:01:16.405Z,18.10
2018-11-05T02:03:55.646Z,17.60
2018-11-05T02:06:36.532Z,18.77
2018-11-05T02:09:17.576Z,19.90
2018-11-05T02:11:56.215Z,17.55
2018-11-05T02:14:35.858Z,16.42
2018-11-05T02:17:15.196Z,18.70
2018-11-05T02:19:56.439Z,17.42
2018-11-05T02:22:35.307Z,20.02
2018-11-05T02:25:15.796Z,18.37
2018-11-05T02:27:54.888Z,17.48
2018-11-05T02:30:36.308Z,15.98
2018-11-05T02:33:14.796Z,17.70
2018-11-05T02:35:55.194Z,18.12
2018-11-05T02:38:34.731Z,17.45
2018-11-05T02:41:13.445Z,17.10
2018-11-05T02:43:52.514Z,17.48
2018-11-05T02:46:27.930Z,18.35
2018-11-05T02:49:06.170Z,19.05
2018-11-05T02:51:45.137Z,19.60
2018-11-05T02:54:23.982Z,18.12
2018-11-05T02:57:04.147Z,19.62
2018-11-05T02:59:44.750Z,18.27
2018-11-05T03:02:24.780Z,19.77
2018-11-05T03:05:04.495Z,19.10
2018-11-05T03:07:42.610Z,20.10
2018-11-05T03:10:22.652Z,19.42
2018-11-05T03:13:03.920Z,21.37
2018-11-05T03:15:42.536Z,17.60
2018-11-05T03:18:25.303Z,21.30
2018-11-05T03:21:04.695Z,21.60
2018-11-05T03:23:45.089Z,20.40
2018-11-05T03:26:26.626Z,20.20
2018-11-05T03:29:06.641Z,20.30
2018-11-05T03:31:46.641Z,19.75
2018-11-05T03:34:26.101Z,19.87
2018-11-05T03:37:06.642Z,22.52
2018-11-05T03:39:46.485Z,21.87
2018-11-05T03:42:26.642Z,20.20
2018-11-05T03:45:05.894Z,20.48
2018-11-05T03:47:46.233Z,20.97
2018-11-05T03:50:25.510Z,20.80
2018-11-05T03:53:05.417Z,22.15
2018-11-05T03:55:45.007Z,20.97
2018-11-05T03:58:24.171Z,19.10
2018-11-05T04:01:03.437Z,20.70
2018-11-05T04:03:43.315Z,20.52
2018-11-05T04:06:24.247Z,21.60
2018-11-05T04:09:02.612Z,20.23
2018-11-05T04:11:43.278Z,20.00
2018-11-05T04:14:22.246Z,20.25
2018-11-05T04:17:02.938Z,20.17
2018-11-05T04:19:44.508Z,19.32
2018-11-05T04:22:23.972Z,18.95
2018-11-05T04:25:04.737Z,19.27
2018-11-05T04:27:40.531Z,19.42
2018-11-05T04:30:18.593Z,18.17
2018-11-05T04:32:58.859Z,18.92
2018-11-05T04:35:35.126Z,19.07
2018-11-05T04:38:15.369Z,17.00
2018-11-05T04:40:54.938Z,18.15
2018-11-05T04:43:33.501Z,17.37
2018-11-05T04:46:10.869Z,16.90
2018-11-05T04:48:38.466Z,17.02
2018-11-05T04:51:06.398Z,15.70
2018-11-05T04:53:35.216Z,18.82
2018-11-05T04:56:05.049Z,18.37
2018-11-05T04:58:33.607Z,16.35
2018-11-05T05:01:01.295Z,18.42
2018-11-05T05:03:30.965Z,16.55
2018-11-05T05:05:59.461Z,16.02
2018-11-05T05:08:27.574Z,16.23
2018-11-05T05:10:55.821Z,16.80
2018-11-05T05:13:23.891Z,19.40
2018-11-05T05:15:52.780Z,16.35
2018-11-05T05:18:21.057Z,17.98
2018-11-05T05:20:48.977Z,18.05
2018-11-05T05:23:19.377Z,16.37
2018-11-05T05:25:47.916Z,15.70
2018-11-05T05:28:15.773Z,16.93
2018-11-05T05:30:43.496Z,17.12
2018-11-05T05:33:11.630Z,17.57
2018-11-05T05:35:39.569Z,17.87
2018-11-05T05:38:08.782Z,21.85
2018-11-05T05:40:37.322Z,24.18
2018-11-05T05:43:05.675Z,18.37
2018-11-05T05:45:38.463Z,22.82
2018-11-05T05:48:09.367Z,20.80
2018-11-05T05:50:37.146Z,19.67
2018-11-05T05:53:12.801Z,20.27
2018-11-05T05:55:48.552Z,23.30
2018-11-05T05:58:20.880Z,21.70
2018-11-05T06:00:57.988Z,22.35
2018-11-05T06:03:32.361Z,23.65
2018-11-05T06:06:09.246Z,21.75
2018-11-05T06:08:39.297Z,22.25
2018-11-05T06:11:09.142Z,19.50
2018-11-05T06:13:42.275Z,21.45
2018-11-05T06:16:23.124Z,20.37
2018-11-05T06:19:02.341Z,20.97
2018-11-05T06:21:44.068Z,22.95
2018-11-05T06:24:25.671Z,22.80
2018-11-05T06:27:05.722Z,19.02
2018-11-05T06:29:46.645Z,16.85
2018-11-05T06:32:26.345Z,16.07
2018-11-05T06:35:06.226Z,15.65
2018-11-05T06:37:46.081Z,15.08
2018-11-05T06:40:24.942Z,18.10
2018-11-05T06:43:04.585Z,17.02
2018-11-05T06:45:43.377Z,18.50
2018-11-05T06:48:22.870Z,18.77
2018-11-05T06:51:02.836Z,18.48
2018-11-05T06:53:42.851Z,20.48
2018-11-05T06:56:22.804Z,18.07
2018-11-05T06:59:02.935Z,17.77
2018-11-05T07:01:43.698Z,18.60
2018-11-05T07:04:24.569Z,19.70
2018-11-05T07:07:04.557Z,19.55
2018-11-05T07:09:45.335Z,18.95
2018-11-05T07:12:25.643Z,20.77
2018-11-05T07:15:05.382Z,17.62
2018-11-05T07:17:44.274Z,17.07
2018-11-05T07:20:26.237Z,17.50
2018-11-05T07:23:05.107Z,16.48
2018-11-05T07:25:46.398Z,17.75
2018-11-05T07:28:24.939Z,17.55
2018-11-05T07:31:04.818Z,15.72
2018-11-05T07:33:45.557Z,14.68
2018-11-05T07:36:25.002Z,14.55
2018-11-05T07:39:08.781Z,15.98
2018-11-05T07:41:48.362Z,15.80
2018-11-05T07:44:28.162Z,17.00
2018-11-05T07:47:07.454Z,16.60
2018-11-05T07:49:46.496Z,15.48
2018-11-05T07:52:26.638Z,14.20
2018-11-05T07:55:06.406Z,15.55
2018-11-05T07:57:44.945Z,15.10
2018-11-05T08:00:29.009Z,14.50
2018-11-05T08:03:09.102Z,14.05
2018-11-05T08:05:49.267Z,16.30
2018-11-05T08:08:27.847Z,14.43
2018-11-05T08:11:06.642Z,14.93
2018-11-05T08:13:46.242Z,14.05
2018-11-05T08:16:25.716Z,13.53
2018-11-05T08:19:06.643Z,15.68
2018-11-05T08:21:46.520Z,13.70
2018-11-05T08:24:26.647Z,14.55
2018-11-05T08:27:06.641Z,14.78
2018-11-05T08:29:46.293Z,13.68
2018-11-05T08:32:25.659Z,13.48
2018-11-05T08:35:03.725Z,13.68
2018-11-05T08:37:44.667Z,13.85
2018-11-05T08:40:25.962Z,13.75
2018-11-05T08:43:05.874Z,15.55
2018-11-05T08:45:44.843Z,14.68
2018-11-05T08:48:26.642Z,15.23
2018-11-05T08:51:05.714Z,15.23
2018-11-05T08:53:46.389Z,15.13
2018-11-05T08:56:25.478Z,16.55
2018-11-05T08:59:05.445Z,14.90
2018-11-05T09:01:45.440Z,14.68
2018-11-05T09:04:25.390Z,15.23
2018-11-05T09:07:06.370Z,13.40
2018-11-05T09:09:45.992Z,14.05
2018-11-05T09:12:26.644Z,13.10
2018-11-05T09:15:06.474Z,14.73
2018-11-05T09:17:44.715Z,14.05
2018-11-05T09:20:25.309Z,15.10
2018-11-05T09:23:04.321Z,14.98
2018-11-05T09:25:46.642Z,15.25
2018-11-05T09:28:26.643Z,14.53
2018-11-05T09:31:04.353Z,14.95
2018-11-05T09:33:45.164Z,16.73
2018-11-05T09:36:24.851Z,14.50
2018-11-05T09:39:05.570Z,15.55
2018-11-05T09:41:45.364Z,14.45
2018-11-05T09:44:25.203Z,15.78
2018-11-05T09:47:04.570Z,14.07
2018-11-05T09:49:43.585Z,16.75
2018-11-05T09:52:23.405Z,15.05
2018-11-05T09:55:03.720Z,15.20
2018-11-05T09:57:43.362Z,14.85
2018-11-05T10:00:24.599Z,16.00
2018-11-05T10:03:24.816Z,15.13
2018-11-05T10:06:03.407Z,19.00
2018-11-05T10:08:45.225Z,19.10
2018-11-05T10:11:24.343Z,15.88
2018-11-05T10:14:04.311Z,16.62
2018-11-05T10:16:43.654Z,16.60
2018-11-05T10:19:23.925Z,15.80
2018-11-05T10:22:03.186Z,15.78
2018-11-05T10:24:43.154Z,17.23
2018-11-05T10:30:05.081Z,17.87
2018-11-05T10:32:46.373Z,17.10
2018-11-05T10:35:30.416Z,16.00
2018-11-05T10:38:11.182Z,15.60
2018-11-05T10:40:50.601Z,17.27
2018-11-05T10:43:30.494Z,17.25
2018-11-05T10:46:09.901Z,18.20
2018-11-05T10:48:50.026Z,17.45
2018-11-05T10:51:30.121Z,16.90
2018-11-05T10:54:09.690Z,17.67
2018-11-05T10:56:48.829Z,17.92
2018-11-05T10:59:27.493Z,15.70
2018-11-05T11:02:10.135Z,16.35
2018-11-05T11:04:50.705Z,17.50
2018-11-05T11:07:30.242Z,18.15
2018-11-05T11:10:09.109Z,17.75
2018-11-05T11:12:50.472Z,19.10
2018-11-05T11:15:30.097Z,18.20
2018-11-05T11:18:08.862Z,16.37
2018-11-05T11:20:46.641Z,19.25
2018-11-05T11:23:26.316Z,17.65
2018-11-05T11:26:04.409Z,19.15
2018-11-05T11:28:44.813Z,19.67
2018-11-05T11:31:25.217Z,19.10
2018-11-05T11:34:04.285Z,19.92
2018-11-05T11:36:45.820Z,20.20
2018-11-05T11:39:25.464Z,22.27
2018-11-05T11:42:05.533Z,19.75
2018-11-05T11:44:45.314Z,20.72
2018-11-05T11:47:26.156Z,20.90
2018-11-05T11:50:05.887Z,18.80
2018-11-05T11:52:45.408Z,19.40
2018-11-05T11:55:26.641Z,21.10
2018-11-05T11:58:06.641Z,17.55
2018-11-05T12:00:46.000Z,18.45
2018-11-05T12:03:26.417Z,17.87
2018-11-05T12:06:05.210Z,18.32
2018-11-05T12:08:45.749Z,18.10
2018-11-05T12:11:26.345Z,18.23
2018-11-05T12:14:04.649Z,16.07
2018-11-05T12:16:44.524Z,16.40
2018-11-05T12:19:22.070Z,16.40
2018-11-05T12:22:02.932Z,18.30
2018-11-05T12:24:42.580Z,18.73
2018-11-05T12:27:23.368Z,18.45
2018-11-05T12:30:02.961Z,19.32
2018-11-05T12:32:43.476Z,16.90
2018-11-05T12:35:16.527Z,17.73
2018-11-05T12:37:50.785Z,24.50
2018-11-05T12:40:23.159Z,23.30
2018-11-05T12:42:53.457Z,17.00
2018-11-05T12:45:22.981Z,13.53
2018-11-05T12:47:53.776Z,13.48
2018-11-05T12:50:23.366Z,13.43
2018-11-05T12:52:57.501Z,15.95
2018-11-05T12:55:33.531Z,13.72
2018-11-05T12:58:04.061Z,14.10
2018-11-05T13:00:34.290Z,15.08
2018-11-05T13:03:05.000Z,15.65
2018-11-05T13:05:34.306Z,15.05
2018-11-05T13:08:08.906Z,13.98
2018-11-05T13:10:39.365Z,34.83
2018-11-05T13:13:08.212Z,14.83
2018-11-05T13:15:39.814Z,10.50
2018-11-05T13:18:09.310Z,29.35
2018-11-05T13:20:40.006Z,12.93
2018-11-05T13:23:12.402Z,20.55
2018-11-05T13:25:42.990Z,19.07
2018-11-05T13:28:14.745Z,11.68
2018-11-05T13:30:54.347Z,35.08
2018-11-05T13:33:24.954Z,15.90
2018-11-05T13:35:59.257Z,15.03
2018-11-05T13:38:34.143Z,18.42
2018-11-05T13:41:09.634Z,21.87
2018-11-05T13:43:39.847Z,12.45
2018-11-05T13:46:12.162Z,25.00
2018-11-05T13:48:54.212Z,28.00
2018-11-05T13:51:28.394Z,21.17
2018-11-05T13:54:07.705Z,15.00
2018-11-05T13:56:47.494Z,11.30
2018-11-05T13:59:25.984Z,16.50
2018-11-05T14:02:05.933Z,11.03
2018-11-05T14:04:46.640Z,10.18
2018-11-05T14:07:24.588Z,11.08
2018-11-05T14:10:04.930Z,13.05
2018-11-05T14:12:45.935Z,10.90
2018-11-05T14:15:28.161Z,12.53
2018-11-05T14:18:08.651Z,14.85
2018-11-05T14:20:49.236Z,11.20
2018-11-05T14:23:22.887Z,10.93
2018-11-05T14:26:02.787Z,11.73
2018-11-05T14:28:41.349Z,10.93
2018-11-05T14:31:20.460Z,10.70
2018-11-05T14:34:00.505Z,12.82
2018-11-05T14:36:39.888Z,10.38
2018-11-05T14:39:19.938Z,11.85
2018-11-05T14:41:56.640Z,10.23
2018-11-05T14:44:30.675Z,11.68
2018-11-05T14:47:08.239Z,12.00
2018-11-05T14:49:39.366Z,12.30
2018-11-05T14:52:12.425Z,11.80
2018-11-05T14:54:48.663Z,11.20
2018-11-05T14:57:28.192Z,11.97
2018-11-05T15:00:09.026Z,10.65
2018-11-05T15:02:49.862Z,11.90
2018-11-05T15:05:30.505Z,13.25
2018-11-05T15:08:13.025Z,10.95
2018-11-05T15:10:52.616Z,13.88
2018-11-05T15:13:31.233Z,13.48
2018-11-05T15:16:09.968Z,16.85
2018-11-05T15:18:50.630Z,15.55
2018-11-05T15:21:31.308Z,11.90
2018-11-05T15:24:10.202Z,12.93
2018-11-05T15:26:49.662Z,12.85
2018-11-05T15:29:29.683Z,18.05
2018-11-05T15:32:08.827Z,14.30
2018-11-05T15:34:47.591Z,11.83
2018-11-05T15:37:26.641Z,15.45
2018-11-05T15:40:05.800Z,14.10
2018-11-05T15:42:41.689Z,12.43
2018-11-05T15:45:22.032Z,13.35
2018-11-05T15:47:58.876Z,15.72
2018-11-05T15:50:38.492Z,13.88
2018-11-05T15:53:17.157Z,12.43
2018-11-05T15:55:57.497Z,12.70
2018-11-05T15:58:35.590Z,16.20
2018-11-05T16:01:14.883Z,15.32
2018-11-05T16:03:52.647Z,15.50
2018-11-05T16:06:32.514Z,14.58
2018-11-05T16:09:12.456Z,13.38
2018-11-05T16:11:51.408Z,15.15
2018-11-05T16:14:29.468Z,18.82
2018-11-05T16:17:09.158Z,24.27
2018-11-05T16:19:48.033Z,23.30
2018-11-05T16:22:23.243Z,33.25
2018-11-05T16:25:01.509Z,29.80
2018-11-05T16:27:38.000Z,20.30
2018-11-05T16:30:18.424Z,16.55
2018-11-05T16:32:58.958Z,15.95
2018-11-05T16:35:36.666Z,16.10
2018-11-05T16:38:13.833Z,15.20
2018-11-05T16:40:53.633Z,14.83
2018-11-05T16:43:33.674Z,15.53
2018-11-05T16:46:12.290Z,15.55
2018-11-05T16:48:53.031Z,14.30
2018-11-05T16:51:33.471Z,15.40
2018-11-05T16:54:13.790Z,16.73
2018-11-05T16:56:55.053Z,16.15
2018-11-05T16:59:35.096Z,16.25
2018-11-05T17:02:19.438Z,16.87
2018-11-05T17:04:59.128Z,17.35
2018-11-05T17:07:39.519Z,19.57
2018-11-05T17:10:21.617Z,22.40
2018-11-05T17:13:01.250Z,26.60
2018-11-05T17:15:40.847Z,23.90
2018-11-05T17:18:20.360Z,22.90
2018-11-05T17:20:59.905Z,21.07
2018-11-05T17:23:40.620Z,21.07
2018-11-05T17:26:19.687Z,21.15
2018-11-05T17:28:56.641Z,20.55
2018-11-05T17:31:35.529Z,17.82
2018-11-05T17:34:16.084Z,20.05
2018-11-05T17:36:55.603Z,18.80
2018-11-05T17:39:39.172Z,22.67
2018-11-05T17:42:16.640Z,25.02
2018-11-05T17:44:56.640Z,22.73
2018-11-05T17:47:36.521Z,23.75
2018-11-05T17:50:20.667Z,24.95
2018-11-05T17:53:00.181Z,30.50
2018-11-05T17:55:35.293Z,23.98
2018-11-05T17:58:15.236Z,24.75
2018-11-05T18:00:54.225Z,30.97
2018-11-05T18:03:33.242Z,32.20
2018-11-05T18:06:14.735Z,23.18
2018-11-05T18:08:54.976Z,20.80
2018-11-05T18:11:34.596Z,22.67
2018-11-05T18:14:13.287Z,22.32
2018-11-05T18:16:55.574Z,23.85
2018-11-05T18:19:34.319Z,23.45
2018-11-05T18:22:14.781Z,22.77
2018-11-05T18:24:51.925Z,26.33
2018-11-05T18:27:33.220Z,26.33
2018-11-05T18:30:13.306Z,29.37
2018-11-05T18:32:55.348Z,26.60
2018-11-05T18:35:33.089Z,23.75
2018-11-05T18:38:13.295Z,23.85
2018-11-05T18:40:53.025Z,25.50
2018-11-05T18:43:34.167Z,25.68
2018-11-05T18:46:13.033Z,24.70
2018-11-05T18:48:52.620Z,26.07
2018-11-05T18:51:31.792Z,25.82
2018-11-05T18:54:12.885Z,22.65
2018-11-05T18:56:51.765Z,22.50
2018-11-05T18:59:31.425Z,22.93
2018-11-05T19:02:11.506Z,23.20
2018-11-05T19:04:51.373Z,23.87
2018-11-05T19:07:31.988Z,21.82
2018-11-05T19:10:13.025Z,22.65
2018-11-05T19:12:53.071Z,25.55
2018-11-05T19:15:33.237Z,22.60
2018-11-05T19:18:14.912Z,26.48
2018-11-05T19:20:54.495Z,24.70
2018-11-05T19:23:33.997Z,30.57
2018-11-05T19:26:16.282Z,33.55
2018-11-05T19:28:55.746Z,32.40
2018-11-05T19:31:35.836Z,32.58
2018-11-05T19:34:18.991Z,30.75
2018-11-05T19:36:58.820Z,27.50
2018-11-05T19:39:35.526Z,24.40
2018-11-05T19:42:15.330Z,23.30
2018-11-05T19:44:49.576Z,26.48
2018-11-05T19:47:27.779Z,24.30
2018-11-05T19:50:06.101Z,23.02
2018-11-05T19:52:48.837Z,25.30
2018-11-05T19:55:27.356Z,29.45
2018-11-05T19:58:06.649Z,27.62
2018-11-05T20:00:43.831Z,30.10
2018-11-05T20:03:22.978Z,26.77
2018-11-05T20:06:03.841Z,25.10
2018-11-05T20:08:43.592Z,24.35
2018-11-05T20:11:19.388Z,20.50
2018-11-05T20:13:56.167Z,22.98
2018-11-05T20:16:29.056Z,23.10
2018-11-05T20:19:09.579Z,20.15
2018-11-05T20:21:48.130Z,20.68
2018-11-05T20:24:26.589Z,21.05
2018-11-05T20:27:06.640Z,20.55
2018-11-05T20:29:46.249Z,19.85
2018-11-05T20:32:14.745Z,21.97
2018-11-05T20:34:54.529Z,21.62
2018-11-05T20:37:34.232Z,20.12
2018-11-05T20:40:14.520Z,20.92
2018-11-05T20:42:55.055Z,21.07
2018-11-05T20:45:35.373Z,30.15
2018-11-05T20:48:13.566Z,27.50
2018-11-05T20:50:55.181Z,21.52
2018-11-05T20:53:34.546Z,20.88
2018-11-05T20:56:15.437Z,24.50
2018-11-05T20:58:55.534Z,31.80
2018-11-05T21:01:36.021Z,25.77
2018-11-05T21:04:15.937Z,25.77
2018-11-05T21:06:56.306Z,28.83
2018-11-05T21:09:35.259Z,37.35
2018-11-05T21:12:14.861Z,23.95
2018-11-05T21:14:55.902Z,27.02
2018-11-05T21:17:34.940Z,28.38
2018-11-05T21:20:14.211Z,27.30
2018-11-05T21:22:54.577Z,29.82
2018-11-05T21:25:35.019Z,29.30
2018-11-05T21:28:15.260Z,28.52
2018-11-05T21:30:55.351Z,28.20
2018-11-05T21:33:34.318Z,24.60
2018-11-05T21:36:14.297Z,27.85
2018-11-05T21:38:54.272Z,27.40
2018-11-05T21:41:33.841Z,29.32
2018-11-05T21:44:14.885Z,26.77
2018-11-05T21:46:56.640Z,31.62
2018-11-05T21:49:35.747Z,29.32
2018-11-05T21:52:16.480Z,30.82
2018-11-05T21:54:55.523Z,26.30
2018-11-05T21:57:36.111Z,26.90
2018-11-05T22:00:17.677Z,26.95
2018-11-05T22:02:59.510Z,26.80
2018-11-05T22:05:39.185Z,26.80
2018-11-05T22:08:18.026Z,25.68
2018-11-05T22:10:56.045Z,29.40
2018-11-05T22:13:36.644Z,31.17
2018-11-05T22:16:15.654Z,32.30
2018-11-05T22:18:55.570Z,29.95
2018-11-05T22:21:34.386Z,31.33
2018-11-05T22:24:14.474Z,31.37
2018-11-05T22:26:52.545Z,31.87
2018-11-05T22:29:32.586Z,30.90
2018-11-05T22:32:12.454Z,29.72
2018-11-05T22:34:51.677Z,33.50
2018-11-05T22:37:32.280Z,34.30
2018-11-05T22:40:13.203Z,33.88
2018-11-05T22:42:53.840Z,31.75
2018-11-05T22:45:33.732Z,32.05
2018-11-05T22:48:13.649Z,33.75
2018-11-05T22:50:53.744Z,33.38
2018-11-05T22:53:33.503Z,30.25
2018-11-05T22:56:13.049Z,31.45
2018-11-05T22:58:52.467Z,29.65
2018-11-05T23:01:36.152Z,32.20
2018-11-05T23:04:15.720Z,28.47
2018-11-05T23:06:56.640Z,32.63
2018-11-05T23:09:35.477Z,32.33
2018-11-05T23:12:15.245Z,33.85
2018-11-05T23:14:55.536Z,31.17
2018-11-05T23:17:36.128Z,31.12
2018-11-05T23:20:14.204Z,31.37
2018-11-05T23:22:55.010Z,32.42
2018-11-05T23:25:35.026Z,32.53
2018-11-05T23:28:15.268Z,31.90
2018-11-05T23:30:56.641Z,28.95
2018-11-05T23:33:35.811Z,30.10
2018-11-05T23:36:19.588Z,29.18
2018-11-05T23:39:01.182Z,30.85
2018-11-05T23:41:40.522Z,29.95
2018-11-05T23:44:20.266Z,32.55
2018-11-05T23:47:00.011Z,32.53
2018-11-05T23:49:39.247Z,30.95
2018-11-05T23:52:18.701Z,31.95
2018-11-05T23:54:58.403Z,32.28
2018-11-05T23:57:36.640Z,32.38
